Saint-Pierre, Martinique
Current Conditions -  °F | °C
As of 2:30 PM on Friday 31 Oct 2014 (Local Time) from TFFF Reporting Station
Broken Clouds Broken Clouds  
Wind Chill: 88°   Ceiling: 2800
Heat Index: 98°   Visibility: 6mi
Dew Point: 75°   Wind: 13mph
Humidity: 66%   Direction: 80°E
Pressure: 29.83"   Gusts: NA
Location:  14.74°N, 61.18°W
Report Text: TFFF 311830Z AUTO 08011KT 9999 BKN028 BKN039 31/24 Q1010
Loading
Personal Weather Stations






























Interactive Weather Map
Tropical Storm Tracking
New forecast layout! Learn more

10-Day Weather Forecast

Advertisements
Track Severe Weather on mobile